createdAt,value
2023-01-06T00:00:15.506Z,99308.44
2023-01-06T00:02:46.557Z,99333.00
2023-01-06T00:05:16.582Z,99316.13
2023-01-06T00:07:55.238Z,99317.28
2023-01-06T00:10:25.469Z,99310.78
2023-01-06T00:12:54.959Z,99310.09
2023-01-06T00:15:29.181Z,99347.56
2023-01-06T00:17:58.469Z,99342.97
2023-01-06T00:20:28.047Z,99350.50
2023-01-06T00:23:05.031Z,99348.41
2023-01-06T00:25:34.574Z,99351.84
2023-01-06T00:28:03.837Z,99339.88
2023-01-06T00:30:35.258Z,99328.88
2023-01-06T00:33:04.410Z,99364.69
2023-01-06T00:35:34.393Z,99363.63
2023-01-06T00:38:05.926Z,99369.53
2023-01-06T00:40:35.186Z,99390.56
2023-01-06T00:43:04.447Z,99394.06
2023-01-06T00:45:34.127Z,99366.66
2023-01-06T00:48:03.288Z,99387.03
2023-01-06T00:50:32.338Z,99393.75
2023-01-06T00:53:02.078Z,99395.19
2023-01-06T00:55:33.158Z,99389.00
2023-01-06T00:58:02.733Z,99403.88
2023-01-06T01:00:36.883Z,99377.16
2023-01-06T01:03:11.153Z,99391.66
2023-01-06T01:05:40.434Z,99408.28
2023-01-06T01:08:10.701Z,99417.16
2023-01-06T01:10:41.962Z,99419.84
2023-01-06T01:13:11.063Z,99433.28
2023-01-06T01:15:40.181Z,99444.66
2023-01-06T01:18:09.526Z,99388.84
2023-01-06T01:20:38.757Z,99439.47
2023-01-06T01:23:07.898Z,99421.38
2023-01-06T01:25:36.996Z,99449.72
2023-01-06T01:28:13.248Z,99429.63
2023-01-06T01:30:43.309Z,99460.34
2023-01-06T01:33:14.114Z,99418.44
2023-01-06T01:35:48.381Z,99480.25
2023-01-06T01:38:17.677Z,99493.41
2023-01-06T01:40:49.884Z,99481.53
2023-01-06T01:43:20.973Z,99480.88
2023-01-06T01:45:52.481Z,99490.97
2023-01-06T01:48:34.809Z,99480.06
2023-01-06T01:51:06.974Z,99475.28
2023-01-06T01:53:42.205Z,99491.16
2023-01-06T01:56:20.595Z,99477.75
2023-01-06T01:58:57.699Z,99493.09
2023-01-06T02:01:27.428Z,99490.88
2023-01-06T02:03:57.096Z,99500.59
2023-01-06T02:06:27.672Z,99494.97
2023-01-06T02:09:08.638Z,99504.53
2023-01-06T02:11:44.082Z,99467.81
2023-01-06T02:14:18.525Z,99524.63
2023-01-06T02:17:04.243Z,99524.03
2023-01-06T02:20:13.346Z,99527.06
2023-01-06T02:23:33.056Z,99536.16
2023-01-06T02:26:44.412Z,99532.38
2023-01-06T02:29:42.100Z,99468.00
2023-01-06T02:32:31.159Z,99528.50
2023-01-06T02:35:11.953Z,99528.16
2023-01-06T02:37:53.596Z,99523.22
2023-01-06T02:40:46.070Z,99503.56
2023-01-06T02:43:22.130Z,99543.59
2023-01-06T02:46:03.176Z,99524.00
2023-01-06T02:48:46.405Z,99531.09
2023-01-06T02:51:25.362Z,99549.72
2023-01-06T02:54:12.466Z,99564.06
2023-01-06T02:56:54.012Z,99568.22
2023-01-06T02:59:27.759Z,99567.34
2023-01-06T03:01:58.063Z,99532.03
2023-01-06T03:04:39.123Z,99565.38
2023-01-06T03:07:10.632Z,99591.56
2023-01-06T03:09:41.386Z,99591.53
2023-01-06T03:12:17.942Z,99584.25
2023-01-06T03:14:51.203Z,99582.53
2023-01-06T03:17:27.255Z,99551.06
2023-01-06T03:19:58.880Z,99570.59
2023-01-06T03:22:29.135Z,99603.03
2023-01-06T03:24:59.326Z,99612.00
2023-01-06T03:27:30.503Z,99613.03
2023-01-06T03:30:00.505Z,99613.25
2023-01-06T03:32:37.073Z,99610.63
2023-01-06T03:35:24.066Z,99625.94
2023-01-06T03:40:39.797Z,99622.41
2023-01-06T03:43:19.484Z,99623.41
2023-01-06T03:45:59.294Z,99620.38
2023-01-06T03:48:45.491Z,99642.41
2023-01-06T03:51:27.452Z,99647.25
2023-01-06T03:54:06.162Z,99636.28
2023-01-06T03:56:41.501Z,99648.41
2023-01-06T03:59:21.300Z,99662.59
2023-01-06T04:01:53.265Z,99637.63
2023-01-06T04:04:28.460Z,99659.69
2023-01-06T04:06:59.888Z,99669.50
2023-01-06T04:09:29.509Z,99661.44
2023-01-06T04:12:11.509Z,99674.59
2023-01-06T04:14:47.355Z,99682.47
2023-01-06T04:17:16.772Z,99666.44
2023-01-06T04:19:46.252Z,99678.38
2023-01-06T04:22:17.820Z,99689.00
2023-01-06T04:24:47.024Z,99683.94
2023-01-06T04:27:16.300Z,99685.91
2023-01-06T04:29:50.722Z,99681.44
2023-01-06T04:32:20.274Z,99703.16
2023-01-06T04:34:49.752Z,99699.69
2023-01-06T04:37:23.178Z,99702.31
2023-01-06T04:39:52.616Z,99709.69
2023-01-06T04:42:21.693Z,99711.91
2023-01-06T04:44:51.137Z,99702.84
2023-01-06T04:47:20.224Z,99713.97
2023-01-06T04:49:49.428Z,99733.66
2023-01-06T04:52:18.589Z,99728.06
2023-01-06T04:54:49.928Z,99710.03
2023-01-06T04:57:19.039Z,99737.84
2023-01-06T04:59:48.202Z,99732.03
2023-01-06T05:02:17.341Z,99744.13
2023-01-06T05:04:48.087Z,99734.06
2023-01-06T05:07:17.398Z,99742.44
2023-01-06T05:09:46.621Z,99749.47
2023-01-06T05:12:17.884Z,99744.56
2023-01-06T05:14:47.535Z,99701.44
2023-01-06T05:17:16.649Z,99743.88
2023-01-06T05:19:50.918Z,99742.28
2023-01-06T05:22:20.178Z,99751.56
2023-01-06T05:24:55.832Z,99748.06
2023-01-06T05:27:32.752Z,99756.81
2023-01-06T05:30:02.302Z,99755.59
2023-01-06T05:32:32.503Z,99738.09
2023-01-06T05:35:02.247Z,99757.88
2023-01-06T05:37:38.009Z,99754.38
2023-01-06T05:40:09.301Z,99744.53
2023-01-06T05:42:40.483Z,99769.44
2023-01-06T05:45:12.083Z,99782.59
2023-01-06T05:47:46.392Z,99785.41
2023-01-06T05:50:15.720Z,99783.47
2023-01-06T05:52:44.909Z,99797.50
2023-01-06T05:55:19.130Z,99801.34
2023-01-06T05:57:50.282Z,99799.59
2023-01-06T06:00:19.279Z,99799.72
2023-01-06T06:02:48.555Z,99803.06
2023-01-06T06:05:17.991Z,99779.59
2023-01-06T06:08:04.278Z,99803.81
2023-01-06T06:10:36.128Z,99822.75
2023-01-06T06:13:07.462Z,99822.22
2023-01-06T06:15:36.751Z,99829.22
2023-01-06T06:18:16.826Z,99832.41
2023-01-06T06:20:46.098Z,99831.31
2023-01-06T06:23:15.199Z,99830.28
2023-01-06T06:25:49.440Z,99812.56
2023-01-06T06:28:20.626Z,99841.66
2023-01-06T06:30:55.712Z,99846.75
2023-01-06T06:33:25.073Z,99852.50
2023-01-06T06:35:59.378Z,99856.03
2023-01-06T06:38:28.982Z,99868.66
2023-01-06T06:41:03.363Z,99875.88
2023-01-06T06:43:34.753Z,99865.38
2023-01-06T06:46:04.134Z,99848.34
2023-01-06T06:48:33.422Z,99870.09
2023-01-06T06:51:04.282Z,99894.28
2023-01-06T06:53:34.664Z,99868.50
2023-01-06T06:56:04.169Z,99887.25
2023-01-06T06:58:40.700Z,99899.34
2023-01-06T07:01:11.669Z,99882.00
2023-01-06T07:03:41.483Z,99883.22
2023-01-06T07:06:13.623Z,99897.97
2023-01-06T07:08:45.731Z,99904.09
2023-01-06T07:11:15.220Z,99904.09
2023-01-06T07:13:46.409Z,99904.44
2023-01-06T07:16:15.980Z,99904.63
2023-01-06T07:18:46.528Z,99910.06
2023-01-06T07:21:25.799Z,99910.78
2023-01-06T07:23:54.970Z,99914.63
2023-01-06T07:26:24.097Z,99920.44
2023-01-06T07:28:55.142Z,99923.41
2023-01-06T07:31:23.942Z,99932.00
2023-01-06T07:33:54.119Z,99917.81
2023-01-06T07:36:23.367Z,99943.41
2023-01-06T07:38:52.486Z,99944.78
2023-01-06T07:41:26.720Z,99946.22
2023-01-06T07:44:02.868Z,99951.66
2023-01-06T07:46:32.241Z,99965.88
2023-01-06T07:49:01.319Z,99960.75
2023-01-06T07:51:30.864Z,99973.38
2023-01-06T07:54:00.067Z,99962.28
2023-01-06T07:56:29.985Z,99970.50
2023-01-06T07:59:01.586Z,99966.34
2023-01-06T08:01:30.899Z,99961.59
2023-01-06T08:04:00.481Z,99970.88
2023-01-06T08:06:30.094Z,99968.75
2023-01-06T08:08:59.210Z,99969.59
2023-01-06T08:11:28.703Z,99981.28
2023-01-06T08:13:58.253Z,99967.22
2023-01-06T08:16:29.451Z,99991.13
2023-01-06T08:18:58.216Z,100002.53
2023-01-06T08:24:08.395Z,99992.47
2023-01-06T08:26:37.686Z,99969.66
2023-01-06T08:29:16.979Z,99992.78
2023-01-06T08:31:48.114Z,100000.47
2023-01-06T08:34:22.586Z,99998.13
2023-01-06T08:36:52.316Z,100003.00
2023-01-06T08:39:26.564Z,100009.94
2023-01-06T08:41:55.930Z,100013.03
2023-01-06T08:44:25.020Z,99991.78
2023-01-06T08:46:56.170Z,99999.34
2023-01-06T08:49:25.022Z,100019.66
2023-01-06T08:51:54.452Z,100017.44
2023-01-06T08:54:23.859Z,100009.50
2023-01-06T08:56:53.556Z,100003.19
2023-01-06T08:59:22.805Z,100001.09
2023-01-06T09:01:52.322Z,100030.72
2023-01-06T09:04:24.272Z,100005.34
2023-01-06T09:06:53.440Z,100030.78
2023-01-06T09:09:22.532Z,100032.75
2023-01-06T09:11:51.679Z,100034.06
2023-01-06T09:14:25.889Z,100036.03
2023-01-06T09:16:55.168Z,100039.19
2023-01-06T09:19:31.577Z,100043.72
2023-01-06T09:22:01.178Z,100025.13
2023-01-06T09:24:30.913Z,100027.72
2023-01-06T09:27:05.209Z,100025.78
2023-01-06T09:29:34.482Z,100020.78
2023-01-06T09:32:03.572Z,100015.94
2023-01-06T09:34:34.963Z,100005.03
2023-01-06T09:37:04.668Z,99984.41
2023-01-06T09:39:33.756Z,100011.06
2023-01-06T09:42:26.998Z,100018.72
2023-01-06T09:44:59.258Z,100028.75
2023-01-06T09:47:37.759Z,100021.69
2023-01-06T09:50:15.172Z,100025.44
2023-01-06T09:52:53.589Z,100031.56
2023-01-06T09:55:31.920Z,100022.69
2023-01-06T09:58:05.843Z,100033.13
2023-01-06T10:00:40.747Z,100036.09
2023-01-06T10:03:17.191Z,100041.88
2023-01-06T10:06:01.087Z,100029.31
2023-01-06T10:08:39.628Z,100021.97
2023-01-06T10:11:16.856Z,100004.78
2023-01-06T10:14:02.547Z,100040.97
2023-01-06T10:16:51.611Z,100023.75
2023-01-06T10:19:31.491Z,100034.88
2023-01-06T10:22:08.437Z,100022.59
2023-01-06T10:24:56.811Z,100037.56
2023-01-06T10:27:41.987Z,100042.38
2023-01-06T10:30:20.692Z,100044.94
2023-01-06T10:32:52.525Z,99999.31
2023-01-06T10:35:29.513Z,100052.63
2023-01-06T10:38:05.306Z,100059.09
2023-01-06T10:40:35.933Z,100073.63
2023-01-06T10:43:08.437Z,100076.22
2023-01-06T10:45:40.948Z,100066.38
2023-01-06T10:48:15.077Z,100087.44
2023-01-06T10:50:45.166Z,100077.81
2023-01-06T10:53:18.044Z,100075.09
2023-01-06T10:55:55.877Z,100072.03
2023-01-06T10:58:37.474Z,100078.69
2023-01-06T11:01:11.387Z,100059.59
2023-01-06T11:03:42.191Z,100069.41
2023-01-06T11:06:18.020Z,100049.66
2023-01-06T11:08:56.037Z,100068.53
2023-01-06T11:11:28.852Z,100042.31
2023-01-06T11:14:05.070Z,100057.91
2023-01-06T11:16:44.659Z,100082.03
2023-01-06T11:19:26.725Z,100076.66
2023-01-06T11:21:55.986Z,100091.34
2023-01-06T11:24:28.783Z,100085.97
2023-01-06T11:26:59.428Z,100086.78
2023-01-06T11:29:31.327Z,100053.31
2023-01-06T11:32:06.375Z,100063.31
2023-01-06T11:34:35.917Z,100078.06
2023-01-06T11:37:05.617Z,100064.63
2023-01-06T11:39:40.269Z,100073.81
2023-01-06T11:42:15.145Z,100093.50
2023-01-06T11:44:45.248Z,100083.50
2023-01-06T11:47:17.772Z,100072.34
2023-01-06T11:49:51.524Z,100093.75
2023-01-06T11:52:30.800Z,100077.69
2023-01-06T11:55:04.931Z,100045.50
2023-01-06T11:57:43.345Z,100091.03
2023-01-06T12:00:36.299Z,100087.59
2023-01-06T12:03:15.298Z,100084.34
2023-01-06T12:05:53.228Z,100077.78
2023-01-06T12:08:26.280Z,100085.88
2023-01-06T12:11:09.148Z,100103.91
2023-01-06T12:13:44.769Z,100113.63
2023-01-06T12:16:25.888Z,100119.66
2023-01-06T12:18:55.613Z,100120.97
2023-01-06T12:21:36.289Z,100119.38
2023-01-06T12:24:08.875Z,100119.09
2023-01-06T12:26:40.395Z,100119.25
2023-01-06T12:29:11.021Z,100114.44
2023-01-06T12:31:49.824Z,100091.94
2023-01-06T12:34:24.191Z,100119.84
2023-01-06T12:37:00.930Z,100134.47
2023-01-06T12:39:41.659Z,100130.56
2023-01-06T12:42:21.436Z,100092.78
2023-01-06T12:44:55.336Z,100104.97
2023-01-06T12:54:30.855Z,100130.19
2023-01-06T12:57:16.308Z,100156.38
2023-01-06T12:59:54.849Z,100143.16
2023-01-06T13:02:40.590Z,100162.88
2023-01-06T13:05:31.857Z,100170.94
2023-01-06T13:08:08.471Z,100172.56
2023-01-06T13:10:46.630Z,100166.41
2023-01-06T13:13:39.432Z,100174.34
2023-01-06T13:16:20.302Z,100184.03
2023-01-06T13:19:02.192Z,100172.75
2023-01-06T13:21:34.057Z,100173.78
2023-01-06T13:24:31.470Z,100194.38
2023-01-06T13:27:21.426Z,100201.59
2023-01-06T13:30:19.205Z,100191.03
2023-01-06T13:33:19.042Z,100208.59
2023-01-06T13:36:06.609Z,100200.34
2023-01-06T13:38:54.283Z,100208.09
2023-01-06T13:41:27.889Z,100219.72
2023-01-06T13:44:01.012Z,100224.50
2023-01-06T13:46:32.586Z,100191.63
2023-01-06T13:49:04.980Z,100212.47
2023-01-06T13:51:36.750Z,100220.91
2023-01-06T13:54:11.512Z,100213.56
2023-01-06T13:56:40.900Z,100229.94
2023-01-06T13:59:29.082Z,100239.94
2023-01-06T14:01:59.251Z,100241.34
2023-01-06T14:04:48.327Z,100235.91
2023-01-06T14:07:36.198Z,100249.97
2023-01-06T14:10:08.461Z,100241.69
2023-01-06T14:12:39.060Z,100228.84
2023-01-06T14:15:33.049Z,100248.88
2023-01-06T14:18:04.201Z,100233.28
2023-01-06T14:20:42.371Z,100245.94
2023-01-06T14:23:24.606Z,100251.53
2023-01-06T14:25:56.926Z,100235.72
2023-01-06T14:28:38.750Z,100252.22
2023-01-06T14:31:49.315Z,100263.06
2023-01-06T14:34:23.008Z,100264.84
2023-01-06T14:36:55.712Z,100268.03
2023-01-06T14:39:28.364Z,100240.09
2023-01-06T14:42:04.329Z,100256.78
2023-01-06T14:44:43.915Z,100272.25
2023-01-06T14:47:18.378Z,100269.09
2023-01-06T14:49:59.231Z,100280.31
2023-01-06T14:55:29.451Z,100284.63
2023-01-06T14:57:59.055Z,100291.09
2023-01-06T15:00:29.718Z,100294.25
2023-01-06T15:03:05.813Z,100299.19
2023-01-06T15:05:39.415Z,100313.94
2023-01-06T15:08:18.013Z,100297.16
2023-01-06T15:10:49.405Z,100310.09
2023-01-06T15:13:25.831Z,100315.44
2023-01-06T15:15:56.448Z,100319.47
2023-01-06T15:18:26.223Z,100310.59
2023-01-06T15:20:57.946Z,100338.34
2023-01-06T15:23:28.660Z,100325.59
2023-01-06T15:26:02.874Z,100314.75
2023-01-06T15:28:34.705Z,100343.22
2023-01-06T15:31:04.510Z,100319.00
2023-01-06T15:33:39.180Z,100332.78
2023-01-06T15:36:24.095Z,100321.97
2023-01-06T15:39:02.989Z,100345.88
2023-01-06T15:41:36.717Z,100345.63
2023-01-06T15:44:23.495Z,100318.06
2023-01-06T15:46:55.158Z,100335.94
2023-01-06T15:49:29.495Z,100338.09
2023-01-06T15:52:05.451Z,100329.00
2023-01-06T15:54:39.750Z,100346.25
2023-01-06T15:57:17.081Z,100342.44
2023-01-06T15:59:56.097Z,100348.91
2023-01-06T16:02:28.377Z,100335.69
2023-01-06T16:05:02.785Z,100338.44
2023-01-06T16:07:44.274Z,100356.09
2023-01-06T16:10:32.467Z,100361.66
2023-01-06T16:13:18.730Z,100371.22
2023-01-06T16:15:50.273Z,100339.94
2023-01-06T16:18:28.380Z,100368.22
2023-01-06T16:20:59.721Z,100373.13
2023-01-06T16:23:34.739Z,100368.97
2023-01-06T16:26:12.459Z,100365.56
2023-01-06T16:28:50.747Z,100381.53
2023-01-06T16:31:31.240Z,100363.25
2023-01-06T16:34:18.516Z,100378.81
2023-01-06T16:36:47.745Z,100373.88
2023-01-06T16:39:24.110Z,100383.59
2023-01-06T16:42:42.229Z,100381.63
2023-01-06T16:45:19.304Z,100386.25
2023-01-06T16:47:54.542Z,100398.69
2023-01-06T16:50:30.658Z,100403.09
2023-01-06T16:53:07.776Z,100374.84
2023-01-06T16:55:39.793Z,100395.31
2023-01-06T16:58:16.525Z,100408.53
2023-01-06T17:00:50.976Z,100406.50
2023-01-06T17:03:22.414Z,100401.09
2023-01-06T17:05:52.724Z,100407.09
2023-01-06T17:08:26.478Z,100388.97
2023-01-06T17:11:03.802Z,100412.16
2023-01-06T17:13:45.416Z,100368.78
2023-01-06T17:16:17.268Z,100392.47
2023-01-06T17:18:54.139Z,100415.44
2023-01-06T17:21:26.102Z,100391.19
2023-01-06T17:23:59.462Z,100414.91
2023-01-06T17:26:36.926Z,100422.66
2023-01-06T17:29:15.042Z,100432.38
2023-01-06T17:34:38.612Z,100444.47
2023-01-06T17:37:13.981Z,100425.94
2023-01-06T17:39:44.869Z,100394.25
2023-01-06T17:42:32.618Z,100434.16
2023-01-06T17:45:02.862Z,100447.84
2023-01-06T17:47:50.054Z,100447.34
2023-01-06T17:50:29.383Z,100438.94
2023-01-06T17:53:27.945Z,100453.53
2023-01-06T17:55:57.236Z,100452.56
2023-01-06T17:58:33.112Z,100447.84
2023-01-06T18:01:03.199Z,100444.63
2023-01-06T18:03:35.011Z,100441.16
2023-01-06T18:06:20.600Z,100450.28
2023-01-06T18:08:51.058Z,100458.31
2023-01-06T18:11:36.173Z,100452.94
2023-01-06T18:14:19.971Z,100452.47
2023-01-06T18:16:51.699Z,100417.44
2023-01-06T18:19:40.073Z,100462.38
2023-01-06T18:22:18.473Z,100469.84
2023-01-06T18:24:49.343Z,100471.47
2023-01-06T18:27:21.252Z,100474.63
2023-01-06T18:29:58.492Z,100477.38
2023-01-06T18:32:34.779Z,100471.91
2023-01-06T18:35:18.434Z,100472.38
2023-01-06T18:37:47.700Z,100471.31
2023-01-06T18:40:20.743Z,100465.94
2023-01-06T18:42:51.758Z,100477.69
2023-01-06T18:45:26.706Z,100479.94
2023-01-06T18:47:57.924Z,100459.47
2023-01-06T18:50:37.069Z,100460.31
2023-01-06T18:53:19.606Z,100477.19
2023-01-06T18:55:59.987Z,100468.78
2023-01-06T19:01:42.873Z,100469.06
2023-01-06T19:04:21.658Z,100423.06
2023-01-06T19:06:54.171Z,100466.50
2023-01-06T19:09:37.425Z,100476.00
2023-01-06T19:12:35.809Z,100452.94
2023-01-06T19:15:20.332Z,100495.63
2023-01-06T19:17:58.455Z,100486.28
2023-01-06T19:20:36.969Z,100494.16
2023-01-06T19:23:17.849Z,100492.97
2023-01-06T19:25:52.691Z,100491.09
2023-01-06T19:28:24.507Z,100484.56
2023-01-06T19:30:56.608Z,100455.78
2023-01-06T19:33:49.550Z,100502.09
2023-01-06T19:36:42.695Z,100503.06
2023-01-06T19:39:30.537Z,100501.16
2023-01-06T19:42:15.383Z,100499.38
2023-01-06T19:44:45.783Z,100499.06
2023-01-06T19:47:20.209Z,100500.50
2023-01-06T19:49:55.622Z,100501.75
2023-01-06T19:52:37.474Z,100506.03
2023-01-06T19:55:25.048Z,100517.31
2023-01-06T19:58:04.256Z,100519.69
2023-01-06T20:00:48.854Z,100468.50
2023-01-06T20:03:28.598Z,100507.84
2023-01-06T20:06:00.021Z,100517.94
2023-01-06T20:08:32.391Z,100518.59
2023-01-06T20:11:07.189Z,100525.69
2023-01-06T20:13:36.459Z,100496.72
2023-01-06T20:16:06.892Z,100497.00
2023-01-06T20:18:36.073Z,100522.41
2023-01-06T20:21:12.706Z,100516.34
2023-01-06T20:23:42.134Z,100517.81
2023-01-06T20:26:11.213Z,100509.31
2023-01-06T20:28:45.628Z,100498.72
2023-01-06T20:31:15.164Z,100530.88
2023-01-06T20:33:45.602Z,100538.03
2023-01-06T20:36:22.299Z,100535.28
2023-01-06T20:38:51.850Z,100533.00
2023-01-06T20:41:20.975Z,100524.38
2023-01-06T20:43:50.163Z,100537.63
2023-01-06T20:48:54.408Z,100524.28
2023-01-06T20:51:25.601Z,100525.97
2023-01-06T20:53:54.439Z,100536.09
2023-01-06T20:56:24.107Z,100540.59
2023-01-06T20:58:53.424Z,100548.75
2023-01-06T21:01:23.039Z,100551.97
2023-01-06T21:03:57.227Z,100537.34
2023-01-06T21:06:28.346Z,100516.75
2023-01-06T21:08:57.306Z,100545.09
2023-01-06T21:11:26.500Z,100559.72
2023-01-06T21:14:02.352Z,100556.59
2023-01-06T21:16:31.724Z,100550.78
2023-01-06T21:19:00.825Z,100563.38
2023-01-06T21:21:32.042Z,100524.09
2023-01-06T21:24:01.579Z,100560.31
2023-01-06T21:26:30.771Z,100567.50
2023-01-06T21:29:00.466Z,100575.91
2023-01-06T21:31:29.818Z,100574.56
2023-01-06T21:34:04.302Z,100568.63
2023-01-06T21:39:28.770Z,100572.19
2023-01-06T21:42:10.933Z,100567.28
2023-01-06T21:44:40.199Z,100569.44
2023-01-06T21:49:49.402Z,100546.44
2023-01-06T21:52:20.763Z,100583.47
2023-01-06T21:54:51.751Z,100572.41
2023-01-06T21:57:20.652Z,100569.53
2023-01-06T21:59:49.950Z,100571.09
2023-01-06T22:02:19.082Z,100572.09
2023-01-06T22:04:48.842Z,100564.66
2023-01-06T22:07:20.963Z,100553.53
2023-01-06T22:09:50.673Z,100539.72
2023-01-06T22:12:21.779Z,100570.00
2023-01-06T22:14:52.268Z,100572.19
2023-01-06T22:17:27.250Z,100567.75
2023-01-06T22:19:57.504Z,100564.94
2023-01-06T22:22:31.296Z,100574.75
2023-01-06T22:25:02.812Z,100580.31
2023-01-06T22:27:32.565Z,100578.44
2023-01-06T22:30:07.829Z,100579.25
2023-01-06T22:32:49.537Z,100575.81
2023-01-06T22:35:20.223Z,100580.94
2023-01-06T22:37:51.618Z,100589.69
2023-01-06T22:40:21.398Z,100547.16
2023-01-06T22:42:57.532Z,100581.81
2023-01-06T22:48:10.516Z,100552.84
2023-01-06T22:53:33.372Z,100578.56
2023-01-06T22:56:03.958Z,100583.06
2023-01-06T22:58:34.099Z,100578.19
2023-01-06T23:01:03.262Z,100575.13
2023-01-06T23:03:32.513Z,100570.50
2023-01-06T23:06:08.621Z,100583.47
2023-01-06T23:08:51.117Z,100575.03
2023-01-06T23:11:32.161Z,100582.78
2023-01-06T23:14:06.540Z,100577.38
2023-01-06T23:16:42.657Z,100575.41
2023-01-06T23:19:14.561Z,100578.66
2023-01-06T23:21:53.934Z,100585.16
2023-01-06T23:24:25.183Z,100580.44
2023-01-06T23:29:38.208Z,100578.09
2023-01-06T23:34:56.956Z,100601.94
2023-01-06T23:37:26.229Z,100597.03
2023-01-06T23:39:57.382Z,100618.13
2023-01-06T23:42:37.542Z,100617.34
2023-01-06T23:45:13.607Z,100581.72
2023-01-06T23:47:42.770Z,100608.81
2023-01-06T23:50:18.923Z,100619.97
2023-01-06T23:52:58.076Z,100621.56
2023-01-06T23:55:29.217Z,100608.09
2023-01-06T23:58:03.430Z,100611.34
